sensor_id;sensor_type;location;lat;lon;timestamp;temperature;humidity
33881;DHT22;20172;47.530;10.256;2022-08-06T00:01:48;20.30;99.90
33881;DHT22;20172;47.530;10.256;2022-08-06T00:04:14;20.20;99.90
33881;DHT22;20172;47.530;10.256;2022-08-06T00:06:40;20.20;99.90
33881;DHT22;20172;47.530;10.256;2022-08-06T00:09:05;20.20;99.90
33881;DHT22;20172;47.530;10.256;2022-08-06T00:11:31;20.10;99.90
33881;DHT22;20172;47.530;10.256;2022-08-06T00:13:57;20.10;99.90
33881;DHT22;20172;47.530;10.256;2022-08-06T00:16:22;20.10;99.90
33881;DHT22;20172;47.530;10.256;2022-08-06T00:18:48;20.10;99.90
33881;DHT22;20172;47.530;10.256;2022-08-06T00:21:14;20.10;99.90
33881;DHT22;20172;47.530;10.256;2022-08-06T00:23:39;19.80;99.90
33881;DHT22;20172;47.530;10.256;2022-08-06T00:26:05;19.70;99.90
33881;DHT22;20172;47.530;10.256;2022-08-06T00:28:31;19.70;99.90
33881;DHT22;20172;47.530;10.256;2022-08-06T00:30:57;19.90;99.90
33881;DHT22;20172;47.530;10.256;2022-08-06T00:33:22;19.90;99.90
33881;DHT22;20172;47.530;10.256;2022-08-06T00:35:48;20.00;99.90
33881;DHT22;20172;47.530;10.256;2022-08-06T00:38:13;19.80;99.90
33881;DHT22;20172;47.530;10.256;2022-08-06T00:40:40;19.80;99.90
33881;DHT22;20172;47.530;10.256;2022-08-06T00:43:06;19.90;99.90
33881;DHT22;20172;47.530;10.256;2022-08-06T00:45:33;19.70;99.90
33881;DHT22;20172;47.530;10.256;2022-08-06T00:48:00;19.60;99.90
33881;DHT22;20172;47.530;10.256;2022-08-06T00:50:26;19.20;99.90
33881;DHT22;20172;47.530;10.256;2022-08-06T00:52:52;18.80;99.90
33881;DHT22;20172;47.530;10.256;2022-08-06T00:55:18;18.60;99.90
33881;DHT22;20172;47.530;10.256;2022-08-06T00:57:45;18.70;99.90
33881;DHT22;20172;47.530;10.256;2022-08-06T01:00:11;18.90;99.90
33881;DHT22;20172;47.530;10.256;2022-08-06T01:02:37;18.70;99.90
33881;DHT22;20172;47.530;10.256;2022-08-06T01:05:03;18.80;99.90
33881;DHT22;20172;47.530;10.256;2022-08-06T01:07:28;18.90;99.90
33881;DHT22;20172;47.530;10.256;2022-08-06T01:09:54;18.80;99.90
33881;DHT22;20172;47.530;10.256;2022-08-06T01:12:20;18.70;99.90
33881;DHT22;20172;47.530;10.256;2022-08-06T01:14:45;18.70;99.90
33881;DHT22;20172;47.530;10.256;2022-08-06T01:17:25;18.70;99.90
33881;DHT22;20172;47.530;10.256;2022-08-06T01:28:45;18.50;99.90
33881;DHT22;20172;47.530;10.256;2022-08-06T01:31:17;18.40;99.90
33881;DHT22;20172;47.530;10.256;2022-08-06T01:33:50;18.50;99.90
33881;DHT22;20172;47.530;10.256;2022-08-06T01:36:22;18.40;99.90
33881;DHT22;20172;47.530;10.256;2022-08-06T01:38:51;18.20;99.90
33881;DHT22;20172;47.530;10.256;2022-08-06T01:41:23;17.90;99.90
33881;DHT22;20172;47.530;10.256;2022-08-06T01:44:10;17.80;99.90
33881;DHT22;20172;47.530;10.256;2022-08-06T01:46:39;17.80;99.90
33881;DHT22;20172;47.530;10.256;2022-08-06T01:49:08;17.80;99.90
33881;DHT22;20172;47.530;10.256;2022-08-06T01:51:35;17.80;99.90
33881;DHT22;20172;47.530;10.256;2022-08-06T01:54:03;18.00;99.90
33881;DHT22;20172;47.530;10.256;2022-08-06T01:56:35;18.10;99.90
33881;DHT22;20172;47.530;10.256;2022-08-06T01:59:03;18.20;99.90
33881;DHT22;20172;47.530;10.256;2022-08-06T02:01:31;18.20;99.90
33881;DHT22;20172;47.530;10.256;2022-08-06T02:03:59;18.10;99.90
33881;DHT22;20172;47.530;10.256;2022-08-06T02:06:33;18.30;99.90
33881;DHT22;20172;47.530;10.256;2022-08-06T02:09:03;18.40;99.90
33881;DHT22;20172;47.530;10.256;2022-08-06T02:11:30;18.60;99.90
33881;DHT22;20172;47.530;10.256;2022-08-06T02:13:59;18.70;99.90
33881;DHT22;20172;47.530;10.256;2022-08-06T02:16:37;18.80;99.90
33881;DHT22;20172;47.530;10.256;2022-08-06T02:19:05;18.90;99.90
33881;DHT22;20172;47.530;10.256;2022-08-06T02:21:33;19.00;99.90
33881;DHT22;20172;47.530;10.256;2022-08-06T02:24:05;19.20;99.90
33881;DHT22;20172;47.530;10.256;2022-08-06T02:26:33;19.30;99.90
33881;DHT22;20172;47.530;10.256;2022-08-06T02:29:02;19.40;99.90
33881;DHT22;20172;47.530;10.256;2022-08-06T02:31:29;19.50;99.90
33881;DHT22;20172;47.530;10.256;2022-08-06T02:33:55;19.60;99.90
33881;DHT22;20172;47.530;10.256;2022-08-06T02:36:42;19.60;99.90
33881;DHT22;20172;47.530;10.256;2022-08-06T02:39:19;19.60;99.90
33881;DHT22;20172;47.530;10.256;2022-08-06T02:50:02;19.70;99.90
33881;DHT22;20172;47.530;10.256;2022-08-06T02:55:05;19.60;99.90
33881;DHT22;20172;47.530;10.256;2022-08-06T02:57:38;19.50;99.90
33881;DHT22;20172;47.530;10.256;2022-08-06T03:00:08;19.50;99.90
33881;DHT22;20172;47.530;10.256;2022-08-06T03:02:36;19.30;99.90
33881;DHT22;20172;47.530;10.256;2022-08-06T03:05:06;19.20;99.90
33881;DHT22;20172;47.530;10.256;2022-08-06T03:07:33;18.90;99.90
33881;DHT22;20172;47.530;10.256;2022-08-06T03:10:01;18.80;99.90
33881;DHT22;20172;47.530;10.256;2022-08-06T03:12:28;18.90;99.90
33881;DHT22;20172;47.530;10.256;2022-08-06T03:14:54;19.00;99.90
33881;DHT22;20172;47.530;10.256;2022-08-06T03:17:21;19.10;99.90
33881;DHT22;20172;47.530;10.256;2022-08-06T03:19:49;19.20;99.90
33881;DHT22;20172;47.530;10.256;2022-08-06T03:22:17;19.20;99.90
33881;DHT22;20172;47.530;10.256;2022-08-06T03:24:43;18.90;99.90
33881;DHT22;20172;47.530;10.256;2022-08-06T03:27:11;18.70;99.90
33881;DHT22;20172;47.530;10.256;2022-08-06T03:29:38;18.50;99.90
33881;DHT22;20172;47.530;10.256;2022-08-06T03:32:07;18.20;99.90
33881;DHT22;20172;47.530;10.256;2022-08-06T03:34:33;18.30;99.90
33881;DHT22;20172;47.530;10.256;2022-08-06T03:37:01;18.40;99.90
33881;DHT22;20172;47.530;10.256;2022-08-06T03:39:29;18.50;99.90
33881;DHT22;20172;47.530;10.256;2022-08-06T03:41:56;18.40;99.90
33881;DHT22;20172;47.530;10.256;2022-08-06T03:44:22;18.50;99.90
33881;DHT22;20172;47.530;10.256;2022-08-06T03:46:58;18.70;99.90
33881;DHT22;20172;47.530;10.256;2022-08-06T03:49:41;18.90;99.90
33881;DHT22;20172;47.530;10.256;2022-08-06T03:52:10;19.10;99.90
33881;DHT22;20172;47.530;10.256;2022-08-06T03:54:40;19.20;99.90
33881;DHT22;20172;47.530;10.256;2022-08-06T03:57:13;19.20;99.90
33881;DHT22;20172;47.530;10.256;2022-08-06T03:59:43;19.20;99.90
33881;DHT22;20172;47.530;10.256;2022-08-06T04:02:10;19.00;99.90
33881;DHT22;20172;47.530;10.256;2022-08-06T04:04:37;19.00;99.90
33881;DHT22;20172;47.530;10.256;2022-08-06T04:07:03;18.60;99.90
33881;DHT22;20172;47.530;10.256;2022-08-06T04:09:30;18.50;99.90
33881;DHT22;20172;47.530;10.256;2022-08-06T04:11:57;18.50;99.90
33881;DHT22;20172;47.530;10.256;2022-08-06T04:14:23;18.30;99.90
33881;DHT22;20172;47.530;10.256;2022-08-06T04:16:49;18.30;99.90
33881;DHT22;20172;47.530;10.256;2022-08-06T04:19:15;18.40;99.90
33881;DHT22;20172;47.530;10.256;2022-08-06T04:21:45;18.20;99.90
33881;DHT22;20172;47.530;10.256;2022-08-06T04:24:11;18.10;99.90
33881;DHT22;20172;47.530;10.256;2022-08-06T04:26:39;17.90;99.90
33881;DHT22;20172;47.530;10.256;2022-08-06T04:29:07;17.90;99.90
33881;DHT22;20172;47.530;10.256;2022-08-06T04:31:34;18.00;99.90
33881;DHT22;20172;47.530;10.256;2022-08-06T04:34:02;18.00;99.90
33881;DHT22;20172;47.530;10.256;2022-08-06T04:36:29;18.10;99.90
33881;DHT22;20172;47.530;10.256;2022-08-06T04:38:55;18.30;99.90
33881;DHT22;20172;47.530;10.256;2022-08-06T04:41:21;18.40;99.90
33881;DHT22;20172;47.530;10.256;2022-08-06T04:43:48;18.40;99.90
33881;DHT22;20172;47.530;10.256;2022-08-06T04:46:14;18.60;99.90
33881;DHT22;20172;47.530;10.256;2022-08-06T04:48:40;18.60;99.90
33881;DHT22;20172;47.530;10.256;2022-08-06T04:51:06;18.70;99.90
33881;DHT22;20172;47.530;10.256;2022-08-06T04:53:39;18.80;99.90
33881;DHT22;20172;47.530;10.256;2022-08-06T04:56:06;19.00;99.90
33881;DHT22;20172;47.530;10.256;2022-08-06T04:58:33;19.20;99.90
33881;DHT22;20172;47.530;10.256;2022-08-06T05:01:00;19.30;99.90
33881;DHT22;20172;47.530;10.256;2022-08-06T05:03:26;19.30;99.90
33881;DHT22;20172;47.530;10.256;2022-08-06T05:09:02;19.50;99.90
33881;DHT22;20172;47.530;10.256;2022-08-06T05:11:31;19.60;99.90
33881;DHT22;20172;47.530;10.256;2022-08-06T05:14:03;19.50;99.90
33881;DHT22;20172;47.530;10.256;2022-08-06T05:16:33;19.40;99.90
33881;DHT22;20172;47.530;10.256;2022-08-06T05:19:02;19.30;99.90
33881;DHT22;20172;47.530;10.256;2022-08-06T05:21:33;19.40;99.90
33881;DHT22;20172;47.530;10.256;2022-08-06T05:24:00;19.40;99.90
33881;DHT22;20172;47.530;10.256;2022-08-06T05:26:28;19.60;99.90
33881;DHT22;20172;47.530;10.256;2022-08-06T05:28:53;19.70;99.90
33881;DHT22;20172;47.530;10.256;2022-08-06T05:31:30;19.90;99.90
33881;DHT22;20172;47.530;10.256;2022-08-06T05:33:56;19.90;99.90
33881;DHT22;20172;47.530;10.256;2022-08-06T05:36:22;20.00;99.90
33881;DHT22;20172;47.530;10.256;2022-08-06T05:38:47;20.10;99.90
33881;DHT22;20172;47.530;10.256;2022-08-06T05:41:13;20.20;99.90
33881;DHT22;20172;47.530;10.256;2022-08-06T05:43:39;20.40;99.90
33881;DHT22;20172;47.530;10.256;2022-08-06T05:46:10;20.50;99.90
33881;DHT22;20172;47.530;10.256;2022-08-06T05:48:40;20.60;99.90
33881;DHT22;20172;47.530;10.256;2022-08-06T05:51:17;20.70;99.90
33881;DHT22;20172;47.530;10.256;2022-08-06T05:53:55;20.80;99.90
33881;DHT22;20172;47.530;10.256;2022-08-06T05:56:29;20.70;99.90
33881;DHT22;20172;47.530;10.256;2022-08-06T05:59:06;20.80;99.90
33881;DHT22;20172;47.530;10.256;2022-08-06T06:01:32;20.70;99.90
33881;DHT22;20172;47.530;10.256;2022-08-06T06:04:01;20.80;99.90
33881;DHT22;20172;47.530;10.256;2022-08-06T06:06:28;20.70;99.90
33881;DHT22;20172;47.530;10.256;2022-08-06T06:08:54;20.70;99.90
33881;DHT22;20172;47.530;10.256;2022-08-06T06:11:21;20.60;99.90
33881;DHT22;20172;47.530;10.256;2022-08-06T06:13:48;20.80;99.90
33881;DHT22;20172;47.530;10.256;2022-08-06T06:16:27;20.80;99.90
33881;DHT22;20172;47.530;10.256;2022-08-06T06:19:14;20.90;99.90
33881;DHT22;20172;47.530;10.256;2022-08-06T06:24:16;20.90;99.90
33881;DHT22;20172;47.530;10.256;2022-08-06T06:29:21;21.10;99.90
33881;DHT22;20172;47.530;10.256;2022-08-06T06:41:03;21.50;99.90
33881;DHT22;20172;47.530;10.256;2022-08-06T06:46:25;21.80;99.90
33881;DHT22;20172;47.530;10.256;2022-08-06T06:48:55;21.90;99.90
33881;DHT22;20172;47.530;10.256;2022-08-06T06:51:35;22.00;99.90
33881;DHT22;20172;47.530;10.256;2022-08-06T06:54:01;21.90;99.90
33881;DHT22;20172;47.530;10.256;2022-08-06T06:56:35;21.90;99.90
33881;DHT22;20172;47.530;10.256;2022-08-06T06:59:06;21.90;99.90
33881;DHT22;20172;47.530;10.256;2022-08-06T07:01:34;21.90;99.90
33881;DHT22;20172;47.530;10.256;2022-08-06T07:04:03;22.00;99.90
33881;DHT22;20172;47.530;10.256;2022-08-06T07:06:31;22.10;99.90
33881;DHT22;20172;47.530;10.256;2022-08-06T07:08:58;22.30;99.90
33881;DHT22;20172;47.530;10.256;2022-08-06T07:11:25;22.10;99.90
33881;DHT22;20172;47.530;10.256;2022-08-06T07:13:52;22.20;99.90
33881;DHT22;20172;47.530;10.256;2022-08-06T07:16:22;22.10;99.90
33881;DHT22;20172;47.530;10.256;2022-08-06T07:18:52;21.80;99.90
33881;DHT22;20172;47.530;10.256;2022-08-06T07:21:19;21.70;99.90
33881;DHT22;20172;47.530;10.256;2022-08-06T07:23:50;21.70;99.90
33881;DHT22;20172;47.530;10.256;2022-08-06T07:26:21;21.60;99.90
33881;DHT22;20172;47.530;10.256;2022-08-06T07:28:49;21.80;99.90
33881;DHT22;20172;47.530;10.256;2022-08-06T07:31:16;21.90;99.90
33881;DHT22;20172;47.530;10.256;2022-08-06T07:33:44;21.80;99.90
33881;DHT22;20172;47.530;10.256;2022-08-06T07:36:14;22.10;99.90
33881;DHT22;20172;47.530;10.256;2022-08-06T07:38:43;22.00;99.90
33881;DHT22;20172;47.530;10.256;2022-08-06T07:41:11;22.10;99.90
33881;DHT22;20172;47.530;10.256;2022-08-06T07:43:47;22.10;99.90
33881;DHT22;20172;47.530;10.256;2022-08-06T07:46:18;22.00;99.90
33881;DHT22;20172;47.530;10.256;2022-08-06T07:49:05;21.80;99.90
33881;DHT22;20172;47.530;10.256;2022-08-06T07:51:34;21.70;99.90
33881;DHT22;20172;47.530;10.256;2022-08-06T07:54:03;21.50;99.90
33881;DHT22;20172;47.530;10.256;2022-08-06T07:56:32;21.40;99.90
33881;DHT22;20172;47.530;10.256;2022-08-06T07:59:00;21.20;99.90
33881;DHT22;20172;47.530;10.256;2022-08-06T08:01:27;21.10;99.90
33881;DHT22;20172;47.530;10.256;2022-08-06T08:03:56;21.00;99.90
33881;DHT22;20172;47.530;10.256;2022-08-06T08:06:41;20.80;99.90
33881;DHT22;20172;47.530;10.256;2022-08-06T08:09:12;20.80;99.90
33881;DHT22;20172;47.530;10.256;2022-08-06T08:11:40;20.90;99.90
33881;DHT22;20172;47.530;10.256;2022-08-06T08:14:07;21.00;99.90
33881;DHT22;20172;47.530;10.256;2022-08-06T08:16:35;21.00;99.90
33881;DHT22;20172;47.530;10.256;2022-08-06T08:19:01;20.90;99.90
33881;DHT22;20172;47.530;10.256;2022-08-06T08:21:28;20.80;99.90
33881;DHT22;20172;47.530;10.256;2022-08-06T08:23:55;20.90;99.90
33881;DHT22;20172;47.530;10.256;2022-08-06T08:26:22;21.00;99.90
33881;DHT22;20172;47.530;10.256;2022-08-06T08:28:47;21.10;99.90
33881;DHT22;20172;47.530;10.256;2022-08-06T08:31:13;21.00;99.90
33881;DHT22;20172;47.530;10.256;2022-08-06T08:33:40;20.90;99.90
33881;DHT22;20172;47.530;10.256;2022-08-06T08:36:06;20.90;99.90
33881;DHT22;20172;47.530;10.256;2022-08-06T08:38:33;20.90;99.90
33881;DHT22;20172;47.530;10.256;2022-08-06T08:41:03;21.00;99.90
33881;DHT22;20172;47.530;10.256;2022-08-06T08:43:33;21.00;99.90
33881;DHT22;20172;47.530;10.256;2022-08-06T08:46:01;20.90;99.90
33881;DHT22;20172;47.530;10.256;2022-08-06T08:48:30;20.90;99.90
33881;DHT22;20172;47.530;10.256;2022-08-06T08:50:58;21.20;99.90
33881;DHT22;20172;47.530;10.256;2022-08-06T08:53:37;21.30;99.90
33881;DHT22;20172;47.530;10.256;2022-08-06T08:56:06;21.40;99.90
33881;DHT22;20172;47.530;10.256;2022-08-06T08:58:33;21.60;99.90
33881;DHT22;20172;47.530;10.256;2022-08-06T09:01:11;21.60;99.90
33881;DHT22;20172;47.530;10.256;2022-08-06T09:03:43;21.60;99.90
33881;DHT22;20172;47.530;10.256;2022-08-06T09:06:10;21.50;99.90
33881;DHT22;20172;47.530;10.256;2022-08-06T09:08:35;21.40;99.90
33881;DHT22;20172;47.530;10.256;2022-08-06T09:11:05;21.30;99.90
33881;DHT22;20172;47.530;10.256;2022-08-06T09:13:31;21.40;99.90
33881;DHT22;20172;47.530;10.256;2022-08-06T09:15:57;21.50;99.90
33881;DHT22;20172;47.530;10.256;2022-08-06T09:18:25;21.60;99.90
33881;DHT22;20172;47.530;10.256;2022-08-06T09:20:51;21.70;99.90
33881;DHT22;20172;47.530;10.256;2022-08-06T09:23:17;21.90;99.90
33881;DHT22;20172;47.530;10.256;2022-08-06T09:25:50;21.90;99.90
33881;DHT22;20172;47.530;10.256;2022-08-06T09:28:37;21.70;99.90
33881;DHT22;20172;47.530;10.256;2022-08-06T09:31:14;21.70;99.90
33881;DHT22;20172;47.530;10.256;2022-08-06T09:33:42;21.70;99.90
33881;DHT22;20172;47.530;10.256;2022-08-06T09:36:13;21.90;99.90
33881;DHT22;20172;47.530;10.256;2022-08-06T09:41:15;22.20;99.90
33881;DHT22;20172;47.530;10.256;2022-08-06T09:43:41;22.40;99.90
33881;DHT22;20172;47.530;10.256;2022-08-06T09:46:07;22.70;99.90
33881;DHT22;20172;47.530;10.256;2022-08-06T09:48:33;22.70;99.90
33881;DHT22;20172;47.530;10.256;2022-08-06T09:50:59;22.50;99.90
33881;DHT22;20172;47.530;10.256;2022-08-06T09:53:25;22.60;99.90
33881;DHT22;20172;47.530;10.256;2022-08-06T09:55:52;22.60;99.90
33881;DHT22;20172;47.530;10.256;2022-08-06T09:58:33;22.80;99.90
33881;DHT22;20172;47.530;10.256;2022-08-06T10:03:38;22.90;99.90
33881;DHT22;20172;47.530;10.256;2022-08-06T10:06:05;22.50;99.90
33881;DHT22;20172;47.530;10.256;2022-08-06T10:08:31;22.50;99.90
33881;DHT22;20172;47.530;10.256;2022-08-06T10:10:56;22.20;99.90
33881;DHT22;20172;47.530;10.256;2022-08-06T10:13:28;22.30;99.90
33881;DHT22;20172;47.530;10.256;2022-08-06T10:15:54;22.60;99.90
33881;DHT22;20172;47.530;10.256;2022-08-06T10:21:08;23.00;99.90
33881;DHT22;20172;47.530;10.256;2022-08-06T10:23:35;23.00;99.90
33881;DHT22;20172;47.530;10.256;2022-08-06T10:26:06;23.30;99.90
33881;DHT22;20172;47.530;10.256;2022-08-06T10:28:33;23.20;99.90
33881;DHT22;20172;47.530;10.256;2022-08-06T10:30:58;23.50;99.90
33881;DHT22;20172;47.530;10.256;2022-08-06T10:33:26;23.80;99.90
33881;DHT22;20172;47.530;10.256;2022-08-06T10:36:02;24.20;99.90
33881;DHT22;20172;47.530;10.256;2022-08-06T10:38:32;24.50;99.90
33881;DHT22;20172;47.530;10.256;2022-08-06T10:40:58;24.70;99.90
33881;DHT22;20172;47.530;10.256;2022-08-06T10:43:25;24.90;99.90
33881;DHT22;20172;47.530;10.256;2022-08-06T10:45:50;25.10;99.90
33881;DHT22;20172;47.530;10.256;2022-08-06T10:48:16;25.00;99.90
33881;DHT22;20172;47.530;10.256;2022-08-06T10:50:42;24.80;99.90
33881;DHT22;20172;47.530;10.256;2022-08-06T10:53:08;24.90;99.90
33881;DHT22;20172;47.530;10.256;2022-08-06T10:55:35;24.80;99.90
33881;DHT22;20172;47.530;10.256;2022-08-06T10:58:01;24.80;99.90
33881;DHT22;20172;47.530;10.256;2022-08-06T11:00:27;24.60;99.90
33881;DHT22;20172;47.530;10.256;2022-08-06T11:05:38;24.80;99.90
33881;DHT22;20172;47.530;10.256;2022-08-06T11:13:31;24.10;99.90
33881;DHT22;20172;47.530;10.256;2022-08-06T11:15:58;23.90;99.90
33881;DHT22;20172;47.530;10.256;2022-08-06T11:18:23;23.70;99.90
33881;DHT22;20172;47.530;10.256;2022-08-06T11:20:51;23.30;99.90
33881;DHT22;20172;47.530;10.256;2022-08-06T11:28:09;23.00;99.90
33881;DHT22;20172;47.530;10.256;2022-08-06T11:30:51;23.20;99.90
33881;DHT22;20172;47.530;10.256;2022-08-06T11:33:18;23.30;99.90
33881;DHT22;20172;47.530;10.256;2022-08-06T11:35:45;23.40;99.90
33881;DHT22;20172;47.530;10.256;2022-08-06T11:38:13;23.80;99.90
33881;DHT22;20172;47.530;10.256;2022-08-06T11:51:40;24.80;99.90
33881;DHT22;20172;47.530;10.256;2022-08-06T11:59:22;26.40;99.90
33881;DHT22;20172;47.530;10.256;2022-08-06T12:01:48;26.40;99.90
33881;DHT22;20172;47.530;10.256;2022-08-06T12:07:25;26.00;99.90
33881;DHT22;20172;47.530;10.256;2022-08-06T12:12:46;26.00;99.90
33881;DHT22;20172;47.530;10.256;2022-08-06T12:20:35;25.40;99.90
33881;DHT22;20172;47.530;10.256;2022-08-06T12:23:02;25.00;99.90
33881;DHT22;20172;47.530;10.256;2022-08-06T12:27:57;24.80;99.90
33881;DHT22;20172;47.530;10.256;2022-08-06T12:30:23;24.80;99.90
33881;DHT22;20172;47.530;10.256;2022-08-06T12:32:48;25.00;99.90
33881;DHT22;20172;47.530;10.256;2022-08-06T12:35:14;25.20;99.90
33881;DHT22;20172;47.530;10.256;2022-08-06T12:37:40;25.80;99.90
33881;DHT22;20172;47.530;10.256;2022-08-06T12:40:08;26.50;99.90
33881;DHT22;20172;47.530;10.256;2022-08-06T12:42:49;26.70;99.90
33881;DHT22;20172;47.530;10.256;2022-08-06T12:45:24;26.60;99.90
33881;DHT22;20172;47.530;10.256;2022-08-06T12:47:59;26.50;99.90
33881;DHT22;20172;47.530;10.256;2022-08-06T12:50:26;26.40;99.90
33881;DHT22;20172;47.530;10.256;2022-08-06T12:53:04;26.30;99.90
33881;DHT22;20172;47.530;10.256;2022-08-06T12:55:30;26.00;99.90
33881;DHT22;20172;47.530;10.256;2022-08-06T12:57:56;25.90;99.90
33881;DHT22;20172;47.530;10.256;2022-08-06T13:00:22;25.80;99.90
33881;DHT22;20172;47.530;10.256;2022-08-06T13:02:49;25.60;99.90
33881;DHT22;20172;47.530;10.256;2022-08-06T13:05:15;25.40;99.90
33881;DHT22;20172;47.530;10.256;2022-08-06T13:07:41;24.90;99.90
33881;DHT22;20172;47.530;10.256;2022-08-06T13:10:13;24.50;99.90
33881;DHT22;20172;47.530;10.256;2022-08-06T13:12:39;24.40;99.90
33881;DHT22;20172;47.530;10.256;2022-08-06T13:15:14;24.20;99.90
33881;DHT22;20172;47.530;10.256;2022-08-06T13:17:40;24.10;99.90
33881;DHT22;20172;47.530;10.256;2022-08-06T13:20:06;23.90;99.90
33881;DHT22;20172;47.530;10.256;2022-08-06T13:22:47;23.80;99.90
33881;DHT22;20172;47.530;10.256;2022-08-06T13:25:14;23.40;99.90
33881;DHT22;20172;47.530;10.256;2022-08-06T13:27:42;23.00;99.90
33881;DHT22;20172;47.530;10.256;2022-08-06T13:30:08;22.90;99.90
33881;DHT22;20172;47.530;10.256;2022-08-06T13:32:34;22.90;99.90
33881;DHT22;20172;47.530;10.256;2022-08-06T13:35:01;22.70;99.90
33881;DHT22;20172;47.530;10.256;2022-08-06T13:40:13;21.90;99.90
33881;DHT22;20172;47.530;10.256;2022-08-06T13:42:52;21.80;99.90
33881;DHT22;20172;47.530;10.256;2022-08-06T13:45:19;21.50;99.90
33881;DHT22;20172;47.530;10.256;2022-08-06T13:47:44;21.30;99.90
33881;DHT22;20172;47.530;10.256;2022-08-06T13:50:10;21.30;99.90
33881;DHT22;20172;47.530;10.256;2022-08-06T13:52:35;21.30;99.90
33881;DHT22;20172;47.530;10.256;2022-08-06T13:55:01;21.30;99.90
33881;DHT22;20172;47.530;10.256;2022-08-06T13:57:27;21.30;99.90
33881;DHT22;20172;47.530;10.256;2022-08-06T13:59:57;21.20;99.90
33881;DHT22;20172;47.530;10.256;2022-08-06T14:02:23;21.00;99.90
33881;DHT22;20172;47.530;10.256;2022-08-06T14:04:48;21.00;99.90
33881;DHT22;20172;47.530;10.256;2022-08-06T14:07:14;21.00;99.90
33881;DHT22;20172;47.530;10.256;2022-08-06T14:09:39;21.20;99.90
33881;DHT22;20172;47.530;10.256;2022-08-06T14:12:05;21.00;99.90
33881;DHT22;20172;47.530;10.256;2022-08-06T14:14:32;21.00;99.90
33881;DHT22;20172;47.530;10.256;2022-08-06T14:16:59;20.90;99.90
33881;DHT22;20172;47.530;10.256;2022-08-06T14:19:25;20.90;99.90
33881;DHT22;20172;47.530;10.256;2022-08-06T14:21:50;20.80;99.90
33881;DHT22;20172;47.530;10.256;2022-08-06T14:24:17;20.80;99.90
33881;DHT22;20172;47.530;10.256;2022-08-06T14:26:43;20.80;99.90
33881;DHT22;20172;47.530;10.256;2022-08-06T14:29:08;20.70;99.90
33881;DHT22;20172;47.530;10.256;2022-08-06T14:31:34;20.70;99.90
33881;DHT22;20172;47.530;10.256;2022-08-06T14:34:00;20.70;99.90
33881;DHT22;20172;47.530;10.256;2022-08-06T14:36:26;20.40;99.90
33881;DHT22;20172;47.530;10.256;2022-08-06T14:38:52;20.40;99.90
33881;DHT22;20172;47.530;10.256;2022-08-06T14:41:17;20.40;99.90
33881;DHT22;20172;47.530;10.256;2022-08-06T14:44:01;20.50;99.90
33881;DHT22;20172;47.530;10.256;2022-08-06T14:46:46;20.20;99.90
33881;DHT22;20172;47.530;10.256;2022-08-06T14:49:12;20.50;99.90
33881;DHT22;20172;47.530;10.256;2022-08-06T14:51:37;20.40;99.90
33881;DHT22;20172;47.530;10.256;2022-08-06T14:54:03;20.30;99.90
33881;DHT22;20172;47.530;10.256;2022-08-06T14:56:28;20.30;99.90
33881;DHT22;20172;47.530;10.256;2022-08-06T14:58:54;20.20;99.90
33881;DHT22;20172;47.530;10.256;2022-08-06T15:01:19;20.10;99.90
33881;DHT22;20172;47.530;10.256;2022-08-06T15:03:45;20.10;99.90
33881;DHT22;20172;47.530;10.256;2022-08-06T15:06:10;20.00;99.90
33881;DHT22;20172;47.530;10.256;2022-08-06T15:08:36;20.00;99.90
33881;DHT22;20172;47.530;10.256;2022-08-06T15:11:02;20.00;99.90
33881;DHT22;20172;47.530;10.256;2022-08-06T15:13:28;20.00;99.90
33881;DHT22;20172;47.530;10.256;2022-08-06T15:15:53;20.00;99.90
33881;DHT22;20172;47.530;10.256;2022-08-06T15:18:19;20.10;99.90
33881;DHT22;20172;47.530;10.256;2022-08-06T15:20:45;20.10;99.90
33881;DHT22;20172;47.530;10.256;2022-08-06T15:23:10;20.10;99.90
33881;DHT22;20172;47.530;10.256;2022-08-06T15:25:36;20.10;99.90
33881;DHT22;20172;47.530;10.256;2022-08-06T15:28:01;20.10;99.90
33881;DHT22;20172;47.530;10.256;2022-08-06T15:30:27;20.20;99.90
33881;DHT22;20172;47.530;10.256;2022-08-06T15:32:52;20.20;99.90
33881;DHT22;20172;47.530;10.256;2022-08-06T15:35:19;20.10;99.90
33881;DHT22;20172;47.530;10.256;2022-08-06T15:37:45;20.10;99.90
33881;DHT22;20172;47.530;10.256;2022-08-06T15:40:10;20.10;99.90
33881;DHT22;20172;47.530;10.256;2022-08-06T15:42:36;20.10;99.90
33881;DHT22;20172;47.530;10.256;2022-08-06T15:45:02;20.20;99.90
33881;DHT22;20172;47.530;10.256;2022-08-06T15:47:28;20.10;99.90
33881;DHT22;20172;47.530;10.256;2022-08-06T15:49:53;20.00;99.90
33881;DHT22;20172;47.530;10.256;2022-08-06T15:52:19;20.00;99.90
33881;DHT22;20172;47.530;10.256;2022-08-06T15:54:44;20.10;99.90
33881;DHT22;20172;47.530;10.256;2022-08-06T15:57:10;20.20;99.90
33881;DHT22;20172;47.530;10.256;2022-08-06T15:59:36;20.20;99.90
33881;DHT22;20172;47.530;10.256;2022-08-06T16:02:01;20.30;99.90
33881;DHT22;20172;47.530;10.256;2022-08-06T16:04:27;20.50;99.90
33881;DHT22;20172;47.530;10.256;2022-08-06T16:06:54;20.60;99.90
33881;DHT22;20172;47.530;10.256;2022-08-06T16:09:21;20.80;99.90
33881;DHT22;20172;47.530;10.256;2022-08-06T16:11:46;20.90;99.90
33881;DHT22;20172;47.530;10.256;2022-08-06T16:14:12;20.90;99.90
33881;DHT22;20172;47.530;10.256;2022-08-06T16:16:38;20.90;99.90
33881;DHT22;20172;47.530;10.256;2022-08-06T16:19:05;20.80;99.90
33881;DHT22;20172;47.530;10.256;2022-08-06T16:21:31;20.80;99.90
33881;DHT22;20172;47.530;10.256;2022-08-06T16:23:58;20.80;99.90
33881;DHT22;20172;47.530;10.256;2022-08-06T16:26:26;20.60;99.90
33881;DHT22;20172;47.530;10.256;2022-08-06T16:28:51;20.60;99.90
33881;DHT22;20172;47.530;10.256;2022-08-06T16:31:17;20.60;99.90
33881;DHT22;20172;47.530;10.256;2022-08-06T16:33:49;20.60;99.90
33881;DHT22;20172;47.530;10.256;2022-08-06T16:36:14;20.50;99.90
33881;DHT22;20172;47.530;10.256;2022-08-06T16:38:40;20.60;99.90
33881;DHT22;20172;47.530;10.256;2022-08-06T16:41:06;20.60;99.90
33881;DHT22;20172;47.530;10.256;2022-08-06T16:43:32;20.60;99.90
33881;DHT22;20172;47.530;10.256;2022-08-06T16:45:57;20.60;99.90
33881;DHT22;20172;47.530;10.256;2022-08-06T16:48:23;20.60;99.90
33881;DHT22;20172;47.530;10.256;2022-08-06T16:50:49;20.60;99.90
33881;DHT22;20172;47.530;10.256;2022-08-06T16:53:15;20.60;99.90
33881;DHT22;20172;47.530;10.256;2022-08-06T16:55:43;20.60;99.90